• Join FlightAware (Why Join?)
  • Login
  • US Flag 
01:39PM EDT


 

Airport Tracker/Info


-or-


 

Live Flight TrackerFlight Track Log ✈ EGF9800 ✈ 06-Jul-2013 ✈ KCHO - KCMH

Flight Track Log - Related Links

Times and Time Zones

All times are in EDT time to prevent confusion due to time zone crossing. See the EGF9800 flight status page for this flight to view local times or setup timezone preferences in your user account.

Time Position Orientation Groundspeed Altitude Reporting Facility
EDT Latitude Longitude Course Direction KTS MPH feet Rate Location/Type
11:25AM 37.9542 -78.9153 251° West 308 354 15,900  Level Washington Center
11:26AM 37.9214 -79.0375 251° West 321 369 18,300 2,520 Climbing Washington Center
11:27AM 37.9058 -79.1422 259° West 320 368 21,100 1,860 Climbing Washington Center
11:28AM 37.9256 -79.2511 283° West 303 349 22,000 420 Climbing Washington Center
11:29AM 37.9494 -79.3603 286° West 334 384 22,000  Level Washington Center
11:30AM 37.9725 -79.4878 283° West 359 413 22,000  Level Washington Center
11:31AM 37.9931 -79.6206 281° West 377 434 22,000 420 Level Washington Center
11:32AM 38.0192 -79.7697 283° West 387 445 22,900 1,260 Climbing Washington Center
11:33AM 38.0436 -79.9056 283° West 397 457 24,600 1,680 Climbing Washington Center
11:34AM 38.0658 -80.0386 282° West 397 457 26,300 1,560 Climbing Washington Center
11:35AM 38.1286 -80.1428 307° West 397 457 27,800 840 Climbing Washington Center
11:36AM 38.2056 -80.2558 311° West 413 475 28,000 60 Climbing Washington Center
11:37AM 38.2844 -80.3719 311° West 427 491 28,000  Level Washington Center
11:39AM 38.4153 -80.5600 312° West 458 527 28,000  Level Indianapolis Center
11:40AM 38.4986 -80.6858 310° West 463 533 28,000 -60 Level Indianapolis Center
11:41AM 38.6008 -80.8372 311° West 470 541 27,900 -540 Descending Indianapolis Center
11:42AM 38.6839 -80.9611 311° West 462 532 26,900 -1,080 Descending Indianapolis Center
11:43AM 38.7644 -81.0839 310° West 454 522 25,800 -1,080 Descending Indianapolis Center
11:44AM 38.8447 -81.2036 311° West 451 519 24,700 -960 Descending Indianapolis Center
11:45AM 38.9239 -81.3250 310° West 450 518 23,900 -1,260 Descending Indianapolis Center
11:46AM 39.0019 -81.4444 310° West 442 509 22,200 -1,800 Descending Indianapolis Center
11:47AM 39.0964 -81.5894 310° West 445 512 20,300 -1,680 Descending Indianapolis Center
11:48AM 39.1700 -81.7033 310° West 427 491 18,800 -1,380 Descending Indianapolis Center
11:49AM 39.2428 -81.8125 311° West 409 471 17,500 -1,380 Descending Indianapolis Center
11:50AM 39.3122 -81.9211 310° West 397 457 16,000 -1,620 Descending Indianapolis Center
11:51AM 39.3900 -82.0472 309° West 401 461 14,200 -1,560 Descending Indianapolis Center
11:52AM 39.4542 -82.1403 312° West 397 457 12,900 -1,380 Descending Indianapolis Center
11:53AM 39.5211 -82.2469 309° West 384 442 11,500 -1,020 Descending Indianapolis Center
11:54AM 39.5839 -82.3469 309° West 377 434 11,000 -300 Descending Indianapolis Center
11:55AM 39.6611 -82.4428 316° Northwest 387 445 11,000 -420 Level Indianapolis Center
11:56AM 39.7389 -82.5333 318° Northwest 382 440 10,200 -540 Descending Indianapolis Center
11:57AM 39.8153 -82.6158 320° Northwest 353 406 10,000 -1,200 Descending Indianapolis Center
11:58AM 39.8683 -82.7006 309° West 268 308 7,900 -2,040 Descending Indianapolis Center
11:59AM 39.8931 -82.7969 289° West 275 316 6,000 -840 Descending Indianapolis Center
12:00PM 39.9094 -82.9119 281° West 277 319 6,000 -600 Level Indianapolis Center
12:01PM 39.9144 -82.9914 275° West 269 310 4,800 -1,140 Descending Indianapolis Center
12:02PM 39.9200 -83.0878 274° West 272 313 4,000 -480 Descending Indianapolis Center
12:03PM 39.9306 -83.1742 279° West 263 303 3,900 -540 Descending Indianapolis Center
12:04PM 39.9914 -83.1758 359° North 232 267 3,000 -480 Descending Indianapolis Center
12:05PM 40.0047 -83.1017 77° East 215 247 3,000 -240 Level Indianapolis Center
12:06PM 40.0014 -83.0272 93° East 212 244 2,600 -600 Descending Indianapolis Center
12:07PM 39.9983 -82.9722 94° East 137 158 1,800 -720 Descending Indianapolis Center
12:08PM 39.9969 -82.9200 92° East 118 136 1,100 -660 Descending Indianapolis Center